Time;durP1;ratioP1;P1;durP2;ratioP2;P2;SDS_P1;SDS_P2;PMS_P1;PMS_P2;Temp;Humidity;BMP_temperature;BMP_pressure;BME280_temperature;BME280_humidity;BME280_pressure;Samples;Min_cycle;Max_cycle;Signal;HPM_P1;HPM_P2
2023/12/03 00:01:19;;;;;;;3.95;3.65;;;;;;;;;;5050467;28;20052;-63
2023/12/03 00:03:47;;;;;;;4.97;4.68;;;;;;;;;;5049290;28;20502;-66
2023/12/03 00:06:17;;;;;;;4.32;4.03;;;;;;;;;;5046367;28;20137;-61
2023/12/03 00:08:46;;;;;;;4.22;4.03;;;;;;;;;;5045946;28;20114;-61
2023/12/03 00:11:18;;;;;;;3.80;3.60;;;;;;;;;;5044854;28;20419;-61
2023/12/03 00:13:47;;;;;;;4.03;3.83;;;;;;;;;;5042735;28;20537;-62
2023/12/03 00:16:15;;;;;;;4.43;4.13;;;;;;;;;;5034228;28;20530;-64
2023/12/03 00:18:43;;;;;;;3.95;3.67;;;;;;;;;;5048397;28;20048;-64
2023/12/03 00:21:12;;;;;;;4.32;4.03;;;;;;;;;;5045834;28;20049;-61
2023/12/03 00:23:42;;;;;;;3.97;3.78;;;;;;;;;;5048942;28;20526;-61
2023/12/03 00:26:10;;;;;;;4.38;4.07;;;;;;;;;;5049514;28;20060;-65
2023/12/03 00:28:39;;;;;;;4.13;3.92;;;;;;;;;;5042155;28;20114;-65
2023/12/03 00:31:07;;;;;;;3.80;3.50;;;;;;;;;;5044652;28;20080;-64
2023/12/03 00:33:36;;;;;;;4.47;4.18;;;;;;;;;;5044265;28;20068;-61
2023/12/03 00:36:04;;;;;;;4.30;4.00;;;;;;;;;;5049791;28;20076;-63
2023/12/03 00:38:33;;;;;;;4.90;4.50;;;;;;;;;;5045187;28;20053;-64
2023/12/03 00:41:02;;;;;;;4.50;4.20;;;;;;;;;;5040939;28;20076;-64
2023/12/03 00:43:31;;;;;;;4.05;3.75;;;;;;;;;;5045627;28;20053;-61
2023/12/03 00:46:00;;;;;;;3.88;3.63;;;;;;;;;;5039029;28;20056;-65
2023/12/03 00:48:29;;;;;;;4.13;3.83;;;;;;;;;;5049516;28;20520;-65
2023/12/03 00:50:58;;;;;;;4.20;3.90;;;;;;;;;;5041281;28;20041;-63
2023/12/03 00:53:26;;;;;;;4.38;4.07;;;;;;;;;;5048382;28;20129;-62
2023/12/03 00:55:55;;;;;;;4.03;3.78;;;;;;;;;;5050306;28;20044;-62
2023/12/03 00:58:24;;;;;;;4.25;3.95;;;;;;;;;;5047567;28;20522;-61
2023/12/03 01:00:53;;;;;;;4.15;3.92;;;;;;;;;;5044363;28;20080;-62
2023/12/03 01:03:21;;;;;;;4.32;4.13;;;;;;;;;;5039917;28;20069;-61
2023/12/03 01:05:50;;;;;;;4.25;3.95;;;;;;;;;;5047752;28;20055;-62
2023/12/03 01:08:19;;;;;;;4.40;4.10;;;;;;;;;;5046022;28;20052;-62
2023/12/03 01:10:48;;;;;;;4.68;4.35;;;;;;;;;;5039969;28;20041;-60
2023/12/03 01:13:16;;;;;;;4.20;4.00;;;;;;;;;;5047691;28;20072;-65
2023/12/03 01:15:46;;;;;;;4.82;4.53;;;;;;;;;;5048137;28;20045;-61
2023/12/03 01:18:15;;;;;;;5.30;4.47;;;;;;;;;;5048156;28;20065;-63
2023/12/03 01:20:43;;;;;;;4.45;4.15;;;;;;;;;;5048615;28;20149;-60
2023/12/03 01:23:12;;;;;;;5.10;4.70;;;;;;;;;;5048769;28;20512;-60
2023/12/03 01:25:40;;;;;;;6.03;5.43;;;;;;;;;;5037435;28;20498;-61
2023/12/03 01:28:09;;;;;;;4.88;4.50;;;;;;;;;;5046377;28;20140;-62
2023/12/03 01:30:37;;;;;;;6.18;4.18;;;;;;;;;;5047591;28;20510;-66
2023/12/03 01:33:07;;;;;;;4.75;4.35;;;;;;;;;;5040834;28;20421;-62
2023/12/03 01:35:35;;;;;;;5.72;5.32;;;;;;;;;;5039379;28;20140;-60
2023/12/03 01:38:05;;;;;;;5.70;5.20;;;;;;;;;;5049401;28;20052;-62
2023/12/03 01:40:33;;;;;;;4.95;4.55;;;;;;;;;;5046118;28;20049;-61
2023/12/03 01:43:02;;;;;;;4.80;4.47;;;;;;;;;;5046564;28;20507;-61
2023/12/03 01:45:31;;;;;;;5.15;4.75;;;;;;;;;;5038455;28;20049;-62
2023/12/03 01:48:00;;;;;;;5.40;4.90;;;;;;;;;;5046246;28;20528;-61
2023/12/03 01:50:29;;;;;;;4.68;4.35;;;;;;;;;;5047251;28;20056;-61
2023/12/03 01:52:58;;;;;;;4.55;4.25;;;;;;;;;;5048302;28;20052;-61
2023/12/03 01:55:27;;;;;;;4.80;4.43;;;;;;;;;;5047498;28;20045;-61
2023/12/03 01:57:55;;;;;;;5.65;5.15;;;;;;;;;;5047961;28;20102;-61
2023/12/03 02:00:23;;;;;;;6.10;5.53;;;;;;;;;;5038269;28;20496;-60
2023/12/03 02:02:53;;;;;;;5.05;4.60;;;;;;;;;;5047737;28;20095;-61
2023/12/03 02:05:22;;;;;;;4.78;4.38;;;;;;;;;;5042991;28;20075;-59
2023/12/03 02:07:53;;;;;;;5.25;4.85;;;;;;;;;;5043925;28;20128;-63
2023/12/03 02:10:21;;;;;;;4.72;4.32;;;;;;;;;;5044840;28;20049;-62
2023/12/03 02:12:50;;;;;;;4.22;3.92;;;;;;;;;;5043146;28;20045;-60
2023/12/03 02:15:18;;;;;;;4.88;4.47;;;;;;;;;;5037046;28;20217;-59
2023/12/03 02:17:47;;;;;;;5.68;5.28;;;;;;;;;;5043435;28;20069;-64
2023/12/03 02:20:15;;;;;;;5.30;4.90;;;;;;;;;;5037018;28;20048;-64
2023/12/03 02:22:59;;;;;;;4.47;4.25;;;;;;;;;;5043123;28;20465;-62
2023/12/03 02:25:28;;;;;;;4.55;4.25;;;;;;;;;;5043546;28;20080;-60
2023/12/03 02:27:56;;;;;;;4.57;4.25;;;;;;;;;;5045773;28;20539;-64
2023/12/03 02:30:24;;;;;;;5.10;4.70;;;;;;;;;;5045696;28;20569;-60
2023/12/03 02:32:53;;;;;;;5.35;5.03;;;;;;;;;;5043582;28;20048;-61
2023/12/03 02:35:21;;;;;;;4.60;4.30;;;;;;;;;;5046665;28;20382;-60
2023/12/03 02:37:49;;;;;;;5.43;5.00;;;;;;;;;;5043367;28;20091;-61
2023/12/03 02:40:20;;;;;;;5.13;4.75;;;;;;;;;;5038379;28;20053;-60
2023/12/03 02:42:48;;;;;;;5.72;5.22;;;;;;;;;;5041276;28;20134;-61
2023/12/03 02:45:17;;;;;;;5.35;4.95;;;;;;;;;;5034781;28;20103;-61
2023/12/03 02:47:45;;;;;;;5.88;5.38;;;;;;;;;;5042365;28;20049;-60
2023/12/03 02:50:13;;;;;;;4.90;4.50;;;;;;;;;;5034115;28;20079;-59
2023/12/03 02:52:42;;;;;;;5.18;4.78;;;;;;;;;;5040199;28;20122;-60
2023/12/03 02:55:10;;;;;;;4.70;4.30;;;;;;;;;;5040279;28;20041;-61
2023/12/03 02:57:40;;;;;;;5.10;4.80;;;;;;;;;;5038926;28;20045;-62
2023/12/03 03:00:09;;;;;;;5.07;4.70;;;;;;;;;;5044901;28;20460;-61
2023/12/03 03:02:37;;;;;;;4.88;4.47;;;;;;;;;;5038987;28;20033;-61
2023/12/03 03:05:06;;;;;;;5.35;4.95;;;;;;;;;;5045751;28;20048;-59
2023/12/03 03:07:34;;;;;;;5.35;4.95;;;;;;;;;;5041925;28;20127;-62
2023/12/03 03:10:03;;;;;;;4.43;4.13;;;;;;;;;;5044122;28;20049;-61
2023/12/03 03:12:31;;;;;;;5.00;4.60;;;;;;;;;;5042909;28;20060;-63
2023/12/03 03:15:01;;;;;;;4.78;4.47;;;;;;;;;;5044096;28;20591;-60
2023/12/03 03:17:29;;;;;;;4.93;4.63;;;;;;;;;;5044761;28;20045;-59
2023/12/03 03:19:58;;;;;;;5.82;5.32;;;;;;;;;;5042162;28;20049;-60
2023/12/03 03:22:26;;;;;;;5.22;4.93;;;;;;;;;;5040072;28;20136;-59
2023/12/03 03:24:54;;;;;;;5.93;5.43;;;;;;;;;;5045092;28;20118;-60
2023/12/03 03:27:23;;;;;;;5.07;4.68;;;;;;;;;;5047959;28;20068;-59
2023/12/03 03:29:51;;;;;;;4.43;4.03;;;;;;;;;;5048260;28;20060;-59
2023/12/03 03:32:21;;;;;;;5.75;5.25;;;;;;;;;;5043009;28;20049;-59
2023/12/03 03:34:49;;;;;;;5.05;4.75;;;;;;;;;;5045089;28;20095;-63
2023/12/03 03:37:17;;;;;;;6.43;4.80;;;;;;;;;;5046520;28;20486;-63
2023/12/03 03:39:46;;;;;;;5.07;4.68;;;;;;;;;;5050976;28;20053;-60
2023/12/03 03:42:14;;;;;;;5.07;4.68;;;;;;;;;;5049117;28;20048;-64
2023/12/03 03:44:43;;;;;;;4.38;4.07;;;;;;;;;;5041943;28;20050;-59
2023/12/03 03:47:13;;;;;;;5.32;4.93;;;;;;;;;;5047276;28;20145;-60
2023/12/03 03:49:43;;;;;;;6.75;4.95;;;;;;;;;;5036095;28;20069;-60
2023/12/03 03:52:11;;;;;;;5.22;4.80;;;;;;;;;;5048951;28;20080;-59
2023/12/03 03:54:41;;;;;;;4.63;4.25;;;;;;;;;;5040417;28;20111;-60
2023/12/03 03:57:09;;;;;;;5.60;5.10;;;;;;;;;;5043111;28;20383;-59
2023/12/03 03:59:38;;;;;;;4.65;4.35;;;;;;;;;;5041545;28;20073;-59
2023/12/03 04:02:06;;;;;;;4.63;4.32;;;;;;;;;;5048730;28;20458;-60
2023/12/03 04:04:34;;;;;;;4.70;4.40;;;;;;;;;;5048628;28;20068;-61
2023/12/03 04:07:04;;;;;;;5.65;5.18;;;;;;;;;;5048191;28;20426;-61
2023/12/03 04:09:33;;;;;;;5.18;4.82;;;;;;;;;;5048753;28;20156;-60
2023/12/03 04:12:03;;;;;;;4.85;4.38;;;;;;;;;;5044724;28;20059;-61
2023/12/03 04:14:31;;;;;;;4.53;4.22;;;;;;;;;;5049038;28;20056;-59
2023/12/03 04:17:00;;;;;;;4.65;4.25;;;;;;;;;;5046216;28;20421;-59
2023/12/03 04:19:28;;;;;;;4.72;4.38;;;;;;;;;;5048144;28;20045;-59
2023/12/03 04:21:57;;;;;;;5.20;4.80;;;;;;;;;;5039491;28;20544;-62
2023/12/03 04:24:26;;;;;;;4.65;4.35;;;;;;;;;;5048318;28;20052;-61
2023/12/03 04:26:55;;;;;;;4.88;4.57;;;;;;;;;;5043163;28;20051;-60
2023/12/03 04:29:23;;;;;;;4.68;4.38;;;;;;;;;;5045510;28;20049;-60
2023/12/03 04:31:51;;;;;;;4.72;4.30;;;;;;;;;;5041841;28;20478;-58
2023/12/03 04:34:20;;;;;;;4.65;4.35;;;;;;;;;;5045304;28;20049;-60
2023/12/03 04:36:48;;;;;;;5.10;4.70;;;;;;;;;;5042569;28;20041;-59
2023/12/03 04:39:17;;;;;;;5.32;4.95;;;;;;;;;;5042640;28;20045;-59
2023/12/03 04:41:46;;;;;;;5.43;5.00;;;;;;;;;;5040277;28;20514;-63
2023/12/03 04:44:15;;;;;;;4.95;4.65;;;;;;;;;;5049439;28;20052;-60
2023/12/03 04:46:43;;;;;;;4.85;4.50;;;;;;;;;;5043307;28;20061;-59
2023/12/03 04:49:12;;;;;;;6.28;5.78;;;;;;;;;;5046564;28;20446;-59
2023/12/03 04:51:40;;;;;;;4.90;4.50;;;;;;;;;;5043083;28;20041;-59
2023/12/03 04:54:10;;;;;;;4.30;4.10;;;;;;;;;;5046367;28;20037;-63
2023/12/03 04:56:38;;;;;;;6.80;5.15;;;;;;;;;;5035888;28;20057;-61
2023/12/03 04:59:08;;;;;;;4.90;4.60;;;;;;;;;;5046192;28;20776;-64
2023/12/03 05:01:36;;;;;;;5.22;4.82;;;;;;;;;;5035625;28;20150;-60
2023/12/03 05:04:05;;;;;;;5.03;4.72;;;;;;;;;;5047006;28;20107;-64
2023/12/03 05:06:33;;;;;;;4.40;4.10;;;;;;;;;;5042625;28;20045;-61
2023/12/03 05:09:03;;;;;;;5.07;4.68;;;;;;;;;;5040797;28;20136;-59
2023/12/03 05:11:31;;;;;;;5.00;4.70;;;;;;;;;;5033472;28;20384;-59
2023/12/03 05:13:59;;;;;;;5.78;5.32;;;;;;;;;;5040006;28;20568;-60
2023/12/03 05:16:29;;;;;;;5.22;4.75;;;;;;;;;;5042011;28;20398;-62
2023/12/03 05:18:57;;;;;;;4.82;4.53;;;;;;;;;;5041180;28;20045;-64
2023/12/03 05:21:26;;;;;;;4.95;4.55;;;;;;;;;;5042772;28;20084;-63
2023/12/03 05:23:54;;;;;;;5.13;4.72;;;;;;;;;;5039322;28;20057;-60
2023/12/03 05:26:24;;;;;;;4.57;4.28;;;;;;;;;;5045080;28;20068;-62
2023/12/03 05:28:52;;;;;;;4.93;4.63;;;;;;;;;;5039905;28;20087;-61
2023/12/03 05:31:20;;;;;;;5.38;4.97;;;;;;;;;;5047921;28;20106;-60
2023/12/03 05:33:50;;;;;;;4.90;4.50;;;;;;;;;;5044910;28;20738;-62
2023/12/03 05:36:22;;;;;;;4.60;4.20;;;;;;;;;;5046948;28;20045;-63
2023/12/03 05:38:52;;;;;;;5.75;4.85;;;;;;;;;;5047913;28;20456;-59
2023/12/03 05:41:20;;;;;;;4.68;4.38;;;;;;;;;;5049678;28;20041;-60
2023/12/03 05:43:49;;;;;;;5.00;4.65;;;;;;;;;;5045469;28;20048;-63
2023/12/03 05:46:18;;;;;;;5.30;4.78;;;;;;;;;;5049699;28;20049;-61
2023/12/03 05:48:46;;;;;;;5.10;4.80;;;;;;;;;;5044512;28;20136;-61
2023/12/03 05:51:16;;;;;;;5.07;4.68;;;;;;;;;;5049066;28;20049;-61
2023/12/03 05:53:44;;;;;;;5.22;4.82;;;;;;;;;;5043950;28;20329;-63
2023/12/03 05:56:13;;;;;;;5.00;4.70;;;;;;;;;;5046831;28;20115;-62
2023/12/03 05:58:41;;;;;;;5.30;4.80;;;;;;;;;;5046015;28;20053;-59
2023/12/03 06:01:09;;;;;;;5.00;4.60;;;;;;;;;;5040506;28;20498;-61
2023/12/03 06:03:38;;;;;;;4.88;4.57;;;;;;;;;;5044014;28;20091;-64
2023/12/03 06:06:07;;;;;;;5.05;4.72;;;;;;;;;;5040045;28;20049;-63
2023/12/03 06:08:36;;;;;;;5.95;5.35;;;;;;;;;;5040943;28;20424;-63
2023/12/03 06:11:05;;;;;;;5.28;4.88;;;;;;;;;;5032295;28;20120;-64
2023/12/03 06:13:37;;;;;;;4.72;4.40;;;;;;;;;;5042988;28;20044;-60
2023/12/03 06:16:05;;;;;;;5.00;4.70;;;;;;;;;;5036613;28;20505;-68
2023/12/03 06:18:34;;;;;;;4.80;4.50;;;;;;;;;;5039108;28;20501;-63
2023/12/03 06:21:02;;;;;;;5.15;4.75;;;;;;;;;;5044875;28;20224;-62
2023/12/03 06:23:31;;;;;;;5.32;4.93;;;;;;;;;;5034265;28;20119;-62
2023/12/03 06:26:02;;;;;;;4.53;4.22;;;;;;;;;;5041879;28;20048;-62
2023/12/03 06:28:30;;;;;;;4.93;4.63;;;;;;;;;;5040338;28;20056;-60
2023/12/03 06:30:59;;;;;;;4.70;4.40;;;;;;;;;;5045930;28;20276;-61
2023/12/03 06:33:27;;;;;;;5.25;4.85;;;;;;;;;;5040719;28;20110;-60
2023/12/03 06:35:56;;;;;;;4.93;4.53;;;;;;;;;;5040990;28;20080;-61
2023/12/03 06:38:24;;;;;;;5.57;5.18;;;;;;;;;;5035197;28;20635;-59
2023/12/03 06:40:53;;;;;;;4.63;4.30;;;;;;;;;;5041419;28;20464;-60
2023/12/03 06:43:22;;;;;;;5.38;4.90;;;;;;;;;;5045977;28;20153;-59
2023/12/03 06:45:51;;;;;;;5.03;4.63;;;;;;;;;;5041352;28;20290;-63
2023/12/03 06:48:21;;;;;;;5.10;4.70;;;;;;;;;;5045681;28;20510;-60
2023/12/03 06:50:49;;;;;;;4.50;4.15;;;;;;;;;;5048039;28;20498;-60
2023/12/03 06:53:18;;;;;;;5.53;5.13;;;;;;;;;;5045752;28;20045;-61
2023/12/03 06:55:46;;;;;;;5.60;5.20;;;;;;;;;;5040176;28;20056;-60
2023/12/03 06:58:14;;;;;;;5.25;4.88;;;;;;;;;;5035135;28;20103;-60
2023/12/03 07:00:44;;;;;;;5.45;5.05;;;;;;;;;;5040635;28;20048;-61
2023/12/03 07:03:12;;;;;;;5.40;5.00;;;;;;;;;;5043595;28;20123;-58
2023/12/03 07:05:42;;;;;;;5.72;5.22;;;;;;;;;;5041930;28;20057;-59
2023/12/03 07:08:10;;;;;;;4.93;4.53;;;;;;;;;;5045836;28;20399;-59
2023/12/03 07:10:39;;;;;;;6.93;4.95;;;;;;;;;;5044668;28;20132;-61
2023/12/03 07:13:07;;;;;;;4.70;4.30;;;;;;;;;;5045394;28;20048;-61
2023/12/03 07:15:35;;;;;;;5.18;4.88;;;;;;;;;;5043805;28;20041;-61
2023/12/03 07:18:05;;;;;;;5.50;5.03;;;;;;;;;;5041258;28;20041;-60
2023/12/03 07:20:34;;;;;;;4.65;4.28;;;;;;;;;;5039162;28;20488;-60
2023/12/03 07:23:02;;;;;;;5.28;4.88;;;;;;;;;;5037308;28;20119;-61
2023/12/03 07:25:30;;;;;;;6.10;5.47;;;;;;;;;;5034531;28;20052;-60
2023/12/03 07:27:59;;;;;;;5.47;5.07;;;;;;;;;;5035931;28;20068;-61
2023/12/03 07:30:27;;;;;;;6.25;5.75;;;;;;;;;;5044159;28;20041;-61
2023/12/03 07:32:56;;;;;;;5.13;4.72;;;;;;;;;;5036523;28;20056;-62
2023/12/03 07:35:25;;;;;;;5.45;5.05;;;;;;;;;;5044558;28;20041;-60
2023/12/03 07:37:55;;;;;;;5.75;5.30;;;;;;;;;;5040105;28;20498;-63
2023/12/03 07:40:23;;;;;;;5.50;5.00;;;;;;;;;;5034264;28;20053;-61
2023/12/03 07:42:51;;;;;;;6.80;6.20;;;;;;;;;;5041311;28;20810;-60
2023/12/03 07:45:20;;;;;;;5.90;5.38;;;;;;;;;;5043594;28;20132;-61
2023/12/03 07:47:50;;;;;;;5.50;5.03;;;;;;;;;;5039331;28;20056;-61
2023/12/03 07:50:18;;;;;;;6.47;5.88;;;;;;;;;;5044669;28;20164;-60
2023/12/03 07:52:48;;;;;;;6.13;5.65;;;;;;;;;;5043972;28;20119;-59
2023/12/03 07:55:17;;;;;;;6.35;5.75;;;;;;;;;;5046345;28;20076;-60
2023/12/03 07:57:45;;;;;;;5.65;5.15;;;;;;;;;;5040782;28;20054;-63
2023/12/03 08:00:14;;;;;;;5.90;5.15;;;;;;;;;;5041777;28;20455;-60
2023/12/03 08:02:43;;;;;;;5.43;5.03;;;;;;;;;;5037544;28;20049;-61
2023/12/03 08:05:11;;;;;;;5.43;5.03;;;;;;;;;;5045660;28;20131;-62
2023/12/03 08:07:40;;;;;;;5.13;4.78;;;;;;;;;;5037648;28;20115;-61
2023/12/03 08:10:10;;;;;;;5.55;5.15;;;;;;;;;;5045390;28;20090;-64
2023/12/03 08:12:39;;;;;;;5.63;5.13;;;;;;;;;;5033880;28;20076;-63
2023/12/03 08:15:08;;;;;;;5.63;5.13;;;;;;;;;;5050268;28;20064;-60
2023/12/03 08:17:36;;;;;;;5.00;4.60;;;;;;;;;;5044076;28;20041;-63
2023/12/03 08:20:05;;;;;;;5.50;5.03;;;;;;;;;;5040229;28;20049;-61
2023/12/03 08:22:34;;;;;;;6.10;5.53;;;;;;;;;;5049439;28;20559;-61
2023/12/03 08:25:02;;;;;;;5.68;5.18;;;;;;;;;;5049323;28;20079;-61
2023/12/03 08:27:32;;;;;;;5.78;5.38;;;;;;;;;;5045481;28;20061;-61
2023/12/03 08:30:00;;;;;;;5.13;4.68;;;;;;;;;;5044736;28;20057;-65
2023/12/03 08:32:29;;;;;;;6.20;5.20;;;;;;;;;;5043545;28;20059;-62
2023/12/03 08:34:57;;;;;;;5.70;5.20;;;;;;;;;;5037531;28;20060;-62
2023/12/03 08:37:26;;;;;;;6.85;6.25;;;;;;;;;;5043823;28;20045;-63
2023/12/03 08:39:55;;;;;;;5.30;4.80;;;;;;;;;;5038089;28;20053;-61
2023/12/03 08:42:23;;;;;;;5.40;5.00;;;;;;;;;;5049374;28;20037;-60
2023/12/03 08:44:53;;;;;;;5.28;4.78;;;;;;;;;;5044900;28;20445;-66
2023/12/03 08:47:22;;;;;;;5.68;5.18;;;;;;;;;;5040533;28;20057;-63
2023/12/03 08:49:51;;;;;;;5.28;4.78;;;;;;;;;;5045902;28;20051;-61
2023/12/03 08:52:19;;;;;;;7.00;5.20;;;;;;;;;;5035290;28;20157;-62
2023/12/03 08:54:47;;;;;;;5.43;5.00;;;;;;;;;;5045774;28;20045;-61
2023/12/03 08:57:16;;;;;;;5.18;4.78;;;;;;;;;;5036595;28;20087;-59
2023/12/03 08:59:46;;;;;;;5.43;5.03;;;;;;;;;;5040923;28;20049;-63
2023/12/03 09:02:16;;;;;;;5.75;5.25;;;;;;;;;;5045553;28;20047;-62
2023/12/03 09:04:45;;;;;;;5.70;5.13;;;;;;;;;;5045917;28;20094;-63
2023/12/03 09:07:13;;;;;;;5.35;4.95;;;;;;;;;;5046477;28;20179;-63
2023/12/03 09:09:42;;;;;;;5.63;5.20;;;;;;;;;;5044757;28;20130;-63
2023/12/03 09:12:11;;;;;;;5.75;5.25;;;;;;;;;;5032991;28;20045;-65
2023/12/03 09:14:39;;;;;;;4.82;4.53;;;;;;;;;;5044365;28;20072;-63
2023/12/03 09:17:09;;;;;;;5.28;4.85;;;;;;;;;;5040292;28;20038;-61
2023/12/03 09:19:39;;;;;;;7.78;5.50;;;;;;;;;;5049632;28;20098;-61
2023/12/03 09:22:07;;;;;;;6.63;4.95;;;;;;;;;;5042864;28;20054;-61
2023/12/03 09:24:35;;;;;;;6.07;5.53;;;;;;;;;;5040471;28;20074;-65
2023/12/03 09:27:04;;;;;;;5.75;5.35;;;;;;;;;;5047887;28;20449;-62
2023/12/03 09:29:32;;;;;;;6.25;5.68;;;;;;;;;;5042796;28;20324;-61
2023/12/03 09:32:01;;;;;;;5.57;5.07;;;;;;;;;;5046941;28;20076;-60
2023/12/03 09:34:29;;;;;;;6.20;5.70;;;;;;;;;;5040148;28;20668;-61
2023/12/03 09:36:59;;;;;;;5.47;4.97;;;;;;;;;;5045129;28;20076;-60
2023/12/03 09:39:28;;;;;;;5.53;5.05;;;;;;;;;;5038936;28;20037;-63
2023/12/03 09:41:57;;;;;;;5.85;5.38;;;;;;;;;;5042585;28;20132;-61
2023/12/03 09:44:28;;;;;;;5.68;5.18;;;;;;;;;;5047473;28;20421;-62
2023/12/03 09:46:56;;;;;;;6.03;5.53;;;;;;;;;;5044497;28;20052;-61
2023/12/03 09:49:25;;;;;;;5.70;5.22;;;;;;;;;;5039268;28;20624;-65
2023/12/03 09:51:54;;;;;;;8.98;5.28;;;;;;;;;;5043435;28;20080;-63
2023/12/03 09:54:24;;;;;;;5.75;5.25;;;;;;;;;;5040319;28;20053;-64
2023/12/03 09:56:55;;;;;;;5.40;4.90;;;;;;;;;;5040059;28;20056;-64
2023/12/03 09:59:24;;;;;;;5.55;5.05;;;;;;;;;;5047976;28;20090;-61
2023/12/03 10:01:52;;;;;;;4.88;4.47;;;;;;;;;;5038004;28;20536;-61
2023/12/03 10:04:21;;;;;;;5.30;4.80;;;;;;;;;;5036539;28;20507;-64
2023/12/03 10:06:51;;;;;;;5.65;5.15;;;;;;;;;;5042411;28;20072;-62
2023/12/03 10:09:22;;;;;;;5.07;4.68;;;;;;;;;;5044937;28;20501;-64
2023/12/03 10:11:54;;;;;;;5.18;4.78;;;;;;;;;;5035291;28;20060;-59
2023/12/03 10:14:23;;;;;;;5.10;4.80;;;;;;;;;;5035844;28;20244;-60
2023/12/03 10:16:52;;;;;;;6.03;5.53;;;;;;;;;;5039555;28;20053;-63
2023/12/03 10:19:23;;;;;;;5.32;4.82;;;;;;;;;;5032434;28;20057;-61
2023/12/03 10:21:52;;;;;;;5.03;4.60;;;;;;;;;;5038470;28;20057;-60
2023/12/03 10:24:21;;;;;;;5.50;5.00;;;;;;;;;;5037139;28;20059;-59
2023/12/03 10:26:54;;;;;;;5.38;4.97;;;;;;;;;;5044872;28;20533;-59
2023/12/03 10:29:24;;;;;;;6.47;5.88;;;;;;;;;;5040165;28;20056;-59
2023/12/03 10:31:51;;;;;;;5.95;5.45;;;;;;;;;;5036206;28;20044;-59
2023/12/03 10:34:21;;;;;;;5.90;5.50;;;;;;;;;;5042170;28;20045;-59
2023/12/03 10:36:50;;;;;;;5.20;4.80;;;;;;;;;;5039251;28;20049;-61
2023/12/03 10:39:19;;;;;;;5.00;4.70;;;;;;;;;;5043613;28;20352;-61
2023/12/03 10:41:49;;;;;;;4.95;4.55;;;;;;;;;;5044116;28;20045;-60
2023/12/03 10:44:21;;;;;;;7.63;5.80;;;;;;;;;;5046964;28;20564;-59
2023/12/03 10:46:50;;;;;;;5.20;4.80;;;;;;;;;;5044869;28;20081;-61
2023/12/03 10:49:18;;;;;;;5.18;4.78;;;;;;;;;;5045919;28;20048;-60
2023/12/03 10:51:47;;;;;;;6.15;5.50;;;;;;;;;;5042715;28;20045;-60
2023/12/03 10:54:16;;;;;;;4.53;4.13;;;;;;;;;;5046747;28;20037;-61
2023/12/03 10:56:45;;;;;;;5.47;5.00;;;;;;;;;;5035908;28;20053;-62
2023/12/03 10:59:13;;;;;;;4.65;4.32;;;;;;;;;;5044437;28;20909;-58
2023/12/03 11:01:47;;;;;;;5.28;4.88;;;;;;;;;;5041705;28;20071;-62
2023/12/03 11:04:22;;;;;;;5.53;5.13;;;;;;;;;;5046262;28;20052;-61
2023/12/03 11:06:53;;;;;;;5.53;5.03;;;;;;;;;;5045668;28;20511;-63
2023/12/03 11:09:22;;;;;;;5.28;4.88;;;;;;;;;;5042698;28;20049;-60
2023/12/03 11:11:51;;;;;;;5.25;4.80;;;;;;;;;;5045220;28;20460;-59
2023/12/03 11:14:20;;;;;;;6.50;5.90;;;;;;;;;;5041489;28;20456;-59
2023/12/03 11:16:54;;;;;;;5.40;4.97;;;;;;;;;;5037331;28;20060;-59
2023/12/03 11:19:24;;;;;;;5.78;5.20;;;;;;;;;;5046143;28;20429;-59
2023/12/03 11:21:59;;;;;;;5.03;4.43;;;;;;;;;;5044385;28;20425;-60
2023/12/03 11:24:42;;;;;;;5.68;5.18;;;;;;;;;;5045778;28;20055;-62
2023/12/03 11:27:11;;;;;;;5.53;5.10;;;;;;;;;;5039567;28;20045;-61
2023/12/03 11:29:48;;;;;;;5.20;4.80;;;;;;;;;;5043123;28;20061;-63
2023/12/03 11:32:18;;;;;;;6.22;5.63;;;;;;;;;;5038366;28;20085;-59
2023/12/03 11:34:57;;;;;;;5.47;4.97;;;;;;;;;;5037820;28;20052;-59
2023/12/03 11:37:27;;;;;;;5.75;5.25;;;;;;;;;;5035178;28;20406;-60
2023/12/03 11:39:56;;;;;;;5.75;5.18;;;;;;;;;;5038985;28;20132;-63
2023/12/03 11:42:25;;;;;;;5.97;5.38;;;;;;;;;;5042245;28;20061;-61
2023/12/03 11:45:08;;;;;;;5.47;4.68;;;;;;;;;;5040759;28;20509;-61
2023/12/03 11:47:38;;;;;;;6.20;5.60;;;;;;;;;;5047332;28;20387;-60
2023/12/03 11:50:07;;;;;;;6.72;5.90;;;;;;;;;;5049871;28;20073;-62
2023/12/03 11:52:36;;;;;;;6.45;5.78;;;;;;;;;;5047687;28;20458;-63
2023/12/03 11:55:07;;;;;;;5.50;5.00;;;;;;;;;;5040080;28;20329;-60
2023/12/03 11:57:36;;;;;;;6.13;5.60;;;;;;;;;;5044043;28;20057;-61
2023/12/03 12:00:06;;;;;;;6.78;5.25;;;;;;;;;;5043793;28;20358;-60
2023/12/03 12:02:35;;;;;;;5.80;5.30;;;;;;;;;;5043821;28;20206;-61
2023/12/03 12:05:05;;;;;;;5.70;5.20;;;;;;;;;;5048034;28;20048;-60
2023/12/03 12:07:34;;;;;;;5.65;5.03;;;;;;;;;;5049614;28;20060;-60
2023/12/03 12:10:02;;;;;;;6.00;5.50;;;;;;;;;;5043409;28;20075;-61
2023/12/03 12:12:31;;;;;;;6.47;5.90;;;;;;;;;;5046381;28;20049;-61
2023/12/03 12:15:01;;;;;;;6.88;6.18;;;;;;;;;;5044824;28;20136;-62
2023/12/03 12:17:29;;;;;;;5.35;4.85;;;;;;;;;;5047138;28;20163;-61
2023/12/03 12:19:57;;;;;;;6.82;6.13;;;;;;;;;;5041850;28;20482;-60
2023/12/03 12:22:41;;;;;;;6.00;5.40;;;;;;;;;;5042098;28;20091;-59
2023/12/03 12:25:10;;;;;;;6.15;5.55;;;;;;;;;;5045963;28;20107;-60
2023/12/03 12:27:38;;;;;;;6.25;5.60;;;;;;;;;;5042250;28;20430;-63
2023/12/03 12:30:08;;;;;;;6.60;5.90;;;;;;;;;;5047615;28;20124;-60
2023/12/03 12:32:54;;;;;;;6.10;5.50;;;;;;;;;;5044213;28;20068;-60
2023/12/03 12:35:24;;;;;;;5.68;4.95;;;;;;;;;;5036745;28;20087;-59
2023/12/03 12:38:01;;;;;;;5.80;5.30;;;;;;;;;;5039310;28;20057;-61
2023/12/03 12:40:30;;;;;;;6.93;5.72;;;;;;;;;;5047643;28;20045;-61
2023/12/03 12:43:09;;;;;;;6.60;6.00;;;;;;;;;;5047983;28;20079;-64
2023/12/03 12:45:39;;;;;;;6.15;5.53;;;;;;;;;;5044510;28;20045;-62
2023/12/03 12:48:23;;;;;;;5.93;5.32;;;;;;;;;;5040103;28;20059;-62
2023/12/03 12:50:52;;;;;;;6.25;5.53;;;;;;;;;;5037716;28;20053;-64
2023/12/03 12:53:22;;;;;;;5.43;5.03;;;;;;;;;;5043222;28;20135;-63
2023/12/03 12:55:51;;;;;;;5.88;5.38;;;;;;;;;;5044165;28;20049;-70
2023/12/03 12:58:20;;;;;;;7.47;6.60;;;;;;;;;;5043770;28;20043;-68
2023/12/03 13:00:48;;;;;;;6.55;5.85;;;;;;;;;;5040437;28;20445;-66
2023/12/03 13:03:16;;;;;;;5.97;5.40;;;;;;;;;;5044861;28;20056;-63
2023/12/03 13:05:45;;;;;;;6.07;5.47;;;;;;;;;;5032946;28;20053;-65
2023/12/03 13:08:13;;;;;;;5.80;5.25;;;;;;;;;;5043110;28;20439;-64
2023/12/03 13:10:43;;;;;;;5.57;5.07;;;;;;;;;;5047616;28;20469;-66
2023/12/03 13:13:11;;;;;;;5.88;5.35;;;;;;;;;;5044468;28;20122;-66
2023/12/03 13:15:42;;;;;;;7.00;6.30;;;;;;;;;;5039731;28;20041;-64
2023/12/03 13:18:09;;;;;;;5.05;4.65;;;;;;;;;;5047660;28;20080;-62
2023/12/03 13:20:50;;;;;;;6.88;6.28;;;;;;;;;;5038116;28;20413;-63
2023/12/03 13:23:18;;;;;;;6.50;5.80;;;;;;;;;;5049167;28;20537;-63
2023/12/03 13:25:48;;;;;;;5.65;5.10;;;;;;;;;;5043844;28;20057;-63
2023/12/03 13:28:17;;;;;;;8.93;8.00;;;;;;;;;;5044608;28;20053;-65
2023/12/03 13:30:45;;;;;;;11.45;8.45;;;;;;;;;;5047848;28;20045;-65
2023/12/03 13:33:14;;;;;;;7.28;6.55;;;;;;;;;;5041721;28;20045;-64
2023/12/03 13:35:42;;;;;;;8.18;6.85;;;;;;;;;;5048705;28;20049;-64
2023/12/03 13:38:11;;;;;;;6.65;6.03;;;;;;;;;;5047961;28;20048;-64
2023/12/03 13:40:39;;;;;;;6.32;5.60;;;;;;;;;;5049131;28;20410;-63
2023/12/03 13:43:09;;;;;;;7.10;6.43;;;;;;;;;;5037289;28;20045;-64
2023/12/03 13:45:38;;;;;;;6.63;6.03;;;;;;;;;;5045772;28;20416;-64
2023/12/03 13:48:06;;;;;;;6.20;5.60;;;;;;;;;;5044952;28;20642;-66
2023/12/03 13:50:37;;;;;;;6.25;5.72;;;;;;;;;;5043174;28;20132;-66
2023/12/03 13:53:05;;;;;;;6.95;6.35;;;;;;;;;;5042343;28;20095;-64
2023/12/03 13:55:34;;;;;;;6.18;5.57;;;;;;;;;;5031608;28;20042;-65
2023/12/03 13:58:04;;;;;;;7.00;6.30;;;;;;;;;;5040249;28;20044;-65
2023/12/03 14:00:34;;;;;;;5.40;4.90;;;;;;;;;;5042884;28;20053;-65
2023/12/03 14:03:02;;;;;;;7.20;6.50;;;;;;;;;;5047843;28;20477;-64
2023/12/03 14:05:30;;;;;;;5.60;5.10;;;;;;;;;;5048394;28;20370;-63
2023/12/03 14:07:59;;;;;;;6.60;5.95;;;;;;;;;;5044699;28;20045;-63
2023/12/03 14:10:29;;;;;;;6.32;5.72;;;;;;;;;;5047349;28;20049;-64
2023/12/03 14:12:57;;;;;;;6.50;5.88;;;;;;;;;;5043398;28;20059;-64
2023/12/03 14:15:26;;;;;;;6.18;5.57;;;;;;;;;;5045897;28;20065;-64
2023/12/03 14:17:56;;;;;;;6.53;5.93;;;;;;;;;;5036076;28;20065;-64
2023/12/03 14:20:24;;;;;;;6.05;5.45;;;;;;;;;;5041559;28;20051;-62
2023/12/03 14:22:54;;;;;;;6.28;5.70;;;;;;;;;;5039621;28;20040;-63
2023/12/03 14:25:22;;;;;;;6.70;6.13;;;;;;;;;;5044235;28;20038;-64
2023/12/03 14:27:51;;;;;;;8.05;6.60;;;;;;;;;;5044215;28;20141;-62
2023/12/03 14:30:20;;;;;;;9.15;6.55;;;;;;;;;;5045481;28;20041;-62
2023/12/03 14:32:48;;;;;;;5.97;5.35;;;;;;;;;;5035525;28;20096;-65
2023/12/03 14:35:18;;;;;;;6.03;5.43;;;;;;;;;;5037568;28;20425;-64
2023/12/03 14:37:47;;;;;;;6.88;5.85;;;;;;;;;;5048198;28;20122;-65
2023/12/03 14:40:15;;;;;;;6.57;5.97;;;;;;;;;;5048560;28;20082;-64
2023/12/03 14:42:44;;;;;;;6.35;5.63;;;;;;;;;;5041442;28;20497;-63
2023/12/03 14:45:13;;;;;;;6.93;6.22;;;;;;;;;;5041559;28;20099;-64
2023/12/03 14:47:41;;;;;;;5.97;5.47;;;;;;;;;;5046151;28;20052;-64
2023/12/03 14:50:10;;;;;;;6.43;5.82;;;;;;;;;;5044185;28;20337;-64
2023/12/03 14:52:42;;;;;;;5.90;5.38;;;;;;;;;;5045613;28;20917;-66
2023/12/03 14:55:10;;;;;;;5.38;4.93;;;;;;;;;;5048578;28;20474;-64